createdAt,value
2022-11-28T00:01:17.998Z,81.78
2022-11-28T00:03:45.791Z,81.17
2022-11-28T00:06:13.608Z,81.03
2022-11-28T00:08:41.493Z,81.48
2022-11-28T00:11:12.313Z,81.23
2022-11-28T00:13:42.094Z,81.00
2022-11-28T00:16:13.980Z,80.75
2022-11-28T00:18:41.747Z,81.02
2022-11-28T00:21:12.409Z,80.88
2022-11-28T00:23:40.341Z,80.83
2022-11-28T00:26:10.972Z,80.66
2022-11-28T00:28:40.153Z,81.30
2022-11-28T00:31:13.491Z,80.91
2022-11-28T00:33:41.187Z,81.08
2022-11-28T00:36:09.423Z,80.90
2022-11-28T00:38:37.182Z,80.54
2022-11-28T00:41:06.724Z,80.61
2022-11-28T00:43:35.031Z,80.72
2022-11-28T00:46:03.147Z,80.68
2022-11-28T00:48:33.409Z,80.99
2022-11-28T00:51:07.815Z,80.86
2022-11-28T00:53:36.163Z,80.53
2022-11-28T00:56:05.452Z,80.60
2022-11-28T00:58:33.274Z,80.55
2022-11-28T01:01:01.434Z,80.55
2022-11-28T01:03:29.159Z,80.35
2022-11-28T01:05:58.264Z,80.38
2022-11-28T01:08:26.113Z,79.97
2022-11-28T01:10:53.842Z,80.49
2022-11-28T01:13:21.560Z,80.56
2022-11-28T01:15:49.350Z,80.43
2022-11-28T01:18:17.189Z,81.17
2022-11-28T01:20:44.967Z,80.90
2022-11-28T01:23:14.202Z,81.10
2022-11-28T01:25:41.900Z,80.93
2022-11-28T01:28:09.621Z,80.99
2022-11-28T01:30:37.370Z,81.00
2022-11-28T01:33:05.062Z,80.99
2022-11-28T01:35:32.808Z,80.59
2022-11-28T01:38:00.570Z,80.94
2022-11-28T01:40:29.801Z,80.97
2022-11-28T01:42:57.593Z,81.27
2022-11-28T01:45:27.813Z,81.11
2022-11-28T01:47:59.475Z,81.33
2022-11-28T01:50:28.979Z,80.98
2022-11-28T01:53:01.193Z,81.09
2022-11-28T01:55:38.836Z,81.17
2022-11-28T01:58:07.644Z,81.15
2022-11-28T02:00:35.659Z,80.85
2022-11-28T02:03:07.702Z,81.22
2022-11-28T02:05:35.407Z,80.97
2022-11-28T02:08:03.733Z,81.23
2022-11-28T02:10:45.061Z,80.75
2022-11-28T02:13:28.683Z,80.94
2022-11-28T02:16:11.944Z,80.32
2022-11-28T02:18:58.295Z,80.51
2022-11-28T02:21:39.593Z,80.33
2022-11-28T02:24:29.338Z,80.27
2022-11-28T02:27:14.563Z,80.62
2022-11-28T02:30:15.402Z,80.55
2022-11-28T02:33:04.034Z,81.30
2022-11-28T02:35:39.325Z,81.94
2022-11-28T02:38:18.309Z,81.83
2022-11-28T02:40:56.071Z,82.00
2022-11-28T02:43:32.754Z,82.45
2022-11-28T02:46:05.338Z,82.86
2022-11-28T02:48:41.154Z,83.22
2022-11-28T02:51:15.381Z,83.16
2022-11-28T02:53:46.719Z,83.57
2022-11-28T02:56:14.831Z,84.04
2022-11-28T02:58:42.567Z,83.82
2022-11-28T03:01:19.403Z,83.91
2022-11-28T03:04:03.285Z,83.85
2022-11-28T03:06:44.248Z,84.53
2022-11-28T03:09:45.566Z,84.51
2022-11-28T03:12:26.019Z,84.45
2022-11-28T03:14:56.197Z,84.65
2022-11-28T03:17:33.371Z,84.68
2022-11-28T03:20:16.794Z,84.52
2022-11-28T03:22:55.949Z,84.57
2022-11-28T03:25:29.884Z,84.99
2022-11-28T03:28:03.335Z,84.92
2022-11-28T03:30:35.625Z,85.48
2022-11-28T03:33:04.929Z,84.88
2022-11-28T03:35:40.456Z,85.13
2022-11-28T03:38:12.448Z,85.36
2022-11-28T03:40:44.909Z,84.86
2022-11-28T03:43:14.769Z,84.99
2022-11-28T03:45:46.297Z,84.87
2022-11-28T03:48:18.613Z,85.29
2022-11-28T03:50:52.780Z,85.00
2022-11-28T03:53:26.036Z,85.47
2022-11-28T03:56:00.896Z,85.64
2022-11-28T03:58:36.333Z,85.22
2022-11-28T04:01:12.064Z,85.32
2022-11-28T04:03:46.669Z,85.63
2022-11-28T04:06:22.030Z,85.85
2022-11-28T04:08:59.434Z,85.78
2022-11-28T04:11:38.364Z,85.97
2022-11-28T04:14:13.388Z,85.30
2022-11-28T04:16:53.619Z,85.79
2022-11-28T04:19:29.821Z,85.74
2022-11-28T04:22:04.064Z,86.16
2022-11-28T04:24:35.845Z,86.18
2022-11-28T04:27:07.510Z,85.82
2022-11-28T04:29:39.169Z,85.84
2022-11-28T04:32:09.129Z,86.22
2022-11-28T04:34:38.627Z,86.22
2022-11-28T04:37:10.156Z,86.23
2022-11-28T04:39:39.229Z,86.15
2022-11-28T04:42:12.525Z,86.14
2022-11-28T04:44:47.182Z,85.71
2022-11-28T04:47:15.571Z,86.15
2022-11-28T04:49:43.563Z,85.90
2022-11-28T04:52:20.161Z,86.29
2022-11-28T04:54:57.507Z,86.21
2022-11-28T04:57:31.343Z,86.06
2022-11-28T05:00:02.138Z,85.94
2022-11-28T05:02:32.524Z,86.05
2022-11-28T05:05:09.551Z,86.18
2022-11-28T05:07:38.857Z,85.66
2022-11-28T05:10:08.151Z,85.62
2022-11-28T05:12:35.924Z,85.83
2022-11-28T05:15:03.782Z,85.45
2022-11-28T05:17:31.576Z,85.67
2022-11-28T05:19:59.356Z,85.60
2022-11-28T05:22:32.220Z,85.79
2022-11-28T05:28:51.589Z,85.78
2022-11-28T05:31:21.490Z,85.76
2022-11-28T05:33:49.472Z,85.70
2022-11-28T05:36:18.968Z,85.38
2022-11-28T05:38:46.883Z,85.61
2022-11-28T05:41:23.310Z,85.96
2022-11-28T05:43:51.422Z,85.50
2022-11-28T05:46:20.325Z,85.93
2022-11-28T05:48:48.813Z,85.66
2022-11-28T05:51:16.898Z,86.15
2022-11-28T05:53:46.297Z,86.19
2022-11-28T05:56:16.102Z,85.97
2022-11-28T05:58:46.917Z,85.94
2022-11-28T06:01:16.815Z,86.07
2022-11-28T06:03:45.617Z,85.93
2022-11-28T06:06:15.441Z,85.99
2022-11-28T06:08:44.001Z,85.80
2022-11-28T06:11:14.923Z,85.93
2022-11-28T06:13:43.340Z,85.84
2022-11-28T06:16:17.618Z,85.61
2022-11-28T06:18:47.767Z,85.50
2022-11-28T06:21:19.771Z,85.63
2022-11-28T06:23:50.891Z,85.67
2022-11-28T06:26:21.918Z,85.53
2022-11-28T06:28:50.106Z,86.11
2022-11-28T06:31:23.730Z,85.61
2022-11-28T06:33:52.580Z,85.46
2022-11-28T06:36:21.777Z,85.69
2022-11-28T06:38:49.992Z,85.35
2022-11-28T06:41:19.816Z,85.48
2022-11-28T06:43:47.745Z,85.21
2022-11-28T06:46:18.140Z,85.64
2022-11-28T06:48:49.542Z,84.97
2022-11-28T06:51:18.344Z,85.78
2022-11-28T06:53:46.397Z,85.40
2022-11-28T06:56:16.289Z,85.61
2022-11-28T06:58:45.220Z,85.18
2022-11-28T07:01:15.584Z,85.15
2022-11-28T07:03:44.374Z,85.14
2022-11-28T07:06:14.773Z,85.18
2022-11-28T07:08:43.287Z,84.30
2022-11-28T07:11:13.304Z,84.21
2022-11-28T07:13:41.992Z,84.55
2022-11-28T07:16:15.741Z,84.72
2022-11-28T07:18:43.959Z,84.69
2022-11-28T07:21:14.821Z,84.78
2022-11-28T07:23:44.185Z,84.47
2022-11-28T07:26:15.917Z,83.97
2022-11-28T07:28:44.581Z,84.32
2022-11-28T07:31:14.486Z,83.75
2022-11-28T07:33:43.932Z,84.30
2022-11-28T07:36:16.001Z,84.06
2022-11-28T07:38:44.421Z,83.90
2022-11-28T07:41:14.375Z,83.83
2022-11-28T07:43:44.028Z,83.89
2022-11-28T07:46:14.138Z,83.70
2022-11-28T07:48:42.412Z,83.59
2022-11-28T07:51:12.339Z,83.57
2022-11-28T07:53:42.513Z,84.11
2022-11-28T07:56:13.926Z,84.00
2022-11-28T07:58:42.939Z,83.40
2022-11-28T08:01:11.729Z,83.42
2022-11-28T08:03:40.232Z,83.72
2022-11-28T08:06:09.301Z,83.59
2022-11-28T08:08:37.158Z,83.51
2022-11-28T08:11:08.198Z,83.62
2022-11-28T08:13:36.845Z,83.39
2022-11-28T08:16:06.652Z,83.61
2022-11-28T08:18:35.065Z,83.70
2022-11-28T08:21:07.338Z,83.01
2022-11-28T08:23:36.364Z,83.18
2022-11-28T08:26:04.325Z,83.15
2022-11-28T08:28:33.901Z,83.17
2022-11-28T08:31:09.048Z,82.87
2022-11-28T08:33:36.807Z,83.10
2022-11-28T08:36:05.716Z,82.55
2022-11-28T08:38:33.709Z,82.47
2022-11-28T08:41:02.987Z,82.93
2022-11-28T08:43:30.832Z,82.60
2022-11-28T08:45:59.992Z,83.13
2022-11-28T08:48:27.734Z,82.44
2022-11-28T08:50:55.504Z,82.24
2022-11-28T08:53:23.361Z,82.38
2022-11-28T08:55:55.035Z,82.37
2022-11-28T08:58:22.823Z,82.24
2022-11-28T09:00:50.638Z,81.79
2022-11-28T09:03:21.300Z,81.93
2022-11-28T09:05:52.169Z,82.02
2022-11-28T09:08:21.738Z,82.34
2022-11-28T09:10:49.453Z,82.39
2022-11-28T09:13:17.215Z,82.52
2022-11-28T09:15:51.149Z,82.37
2022-11-28T09:18:21.691Z,81.86
2022-11-28T09:20:49.491Z,82.01
2022-11-28T09:23:17.286Z,82.66
2022-11-28T09:25:45.161Z,82.27
2022-11-28T09:28:12.934Z,82.26
2022-11-28T09:30:40.688Z,82.39
2022-11-28T09:33:08.732Z,82.70
2022-11-28T09:35:40.290Z,82.66
2022-11-28T09:38:08.642Z,82.45
2022-11-28T09:40:38.812Z,83.48
2022-11-28T09:43:15.791Z,83.52
2022-11-28T09:45:45.831Z,83.25
2022-11-28T09:48:26.584Z,83.48
2022-11-28T09:51:01.017Z,84.19
2022-11-28T09:53:36.274Z,84.42
2022-11-28T09:56:13.229Z,83.64
2022-11-28T09:58:46.914Z,84.18
2022-11-28T10:01:18.924Z,84.90
2022-11-28T10:03:55.192Z,84.50
2022-11-28T10:06:30.978Z,84.61
2022-11-28T10:09:28.004Z,84.99
2022-11-28T10:12:14.838Z,85.22
2022-11-28T10:15:05.855Z,85.61
2022-11-28T10:17:44.400Z,85.37
2022-11-28T10:20:17.101Z,85.90
2022-11-28T10:22:49.732Z,85.67
2022-11-28T10:25:21.193Z,85.76
2022-11-28T10:27:50.370Z,85.85
2022-11-28T10:30:23.236Z,85.56
2022-11-28T10:32:58.261Z,85.86
2022-11-28T10:35:32.200Z,86.27
2022-11-28T10:38:01.395Z,86.08
2022-11-28T10:40:37.445Z,86.26
2022-11-28T10:43:12.197Z,86.44
2022-11-28T10:45:49.822Z,86.63
2022-11-28T10:48:41.355Z,86.38
2022-11-28T10:51:25.744Z,86.68
2022-11-28T10:54:05.650Z,86.64
2022-11-28T10:56:42.091Z,86.52
2022-11-28T10:59:19.405Z,86.42
2022-11-28T11:01:50.456Z,86.62
2022-11-28T11:04:20.978Z,86.98
2022-11-28T11:07:10.582Z,87.19
2022-11-28T11:09:43.901Z,87.39
2022-11-28T11:12:21.515Z,86.91
2022-11-28T11:14:49.350Z,86.89
2022-11-28T11:17:34.246Z,86.91
2022-11-28T11:20:03.718Z,86.75
2022-11-28T11:22:32.607Z,87.38
2022-11-28T11:25:17.968Z,87.19
2022-11-28T11:27:50.828Z,87.47
2022-11-28T11:30:27.121Z,87.22
2022-11-28T11:32:56.327Z,87.36
2022-11-28T11:35:27.126Z,87.38
2022-11-28T11:38:14.900Z,87.33
2022-11-28T11:40:44.062Z,87.37
2022-11-28T11:43:26.680Z,87.63
2022-11-28T11:46:09.052Z,87.48
2022-11-28T11:48:39.818Z,87.25
2022-11-28T11:51:08.946Z,87.05
2022-11-28T11:53:36.669Z,87.36
2022-11-28T11:56:06.119Z,87.56
2022-11-28T11:58:41.192Z,87.42
2022-11-28T12:01:12.714Z,87.60
2022-11-28T12:03:42.827Z,87.36
2022-11-28T12:06:16.843Z,87.83
2022-11-28T12:08:51.341Z,87.60
2022-11-28T12:11:25.944Z,87.47
2022-11-28T12:13:54.448Z,87.26
2022-11-28T12:16:38.767Z,87.40
2022-11-28T12:19:17.874Z,88.07
2022-11-28T12:21:59.887Z,88.39
2022-11-28T12:24:34.749Z,87.79
2022-11-28T12:27:13.095Z,88.39
2022-11-28T12:29:52.254Z,88.32
2022-11-28T12:32:38.072Z,88.51
2022-11-28T12:35:19.100Z,88.90
2022-11-28T12:38:10.854Z,88.28
2022-11-28T12:40:49.609Z,88.17
2022-11-28T12:43:32.366Z,88.21
2022-11-28T12:46:03.377Z,88.23
2022-11-28T12:48:43.154Z,88.57
2022-11-28T12:51:21.895Z,88.39
2022-11-28T12:54:07.447Z,88.83
2022-11-28T12:56:48.649Z,88.88
2022-11-28T12:59:26.917Z,88.82
2022-11-28T13:02:09.657Z,88.97
2022-11-28T13:05:06.250Z,88.76
2022-11-28T13:07:44.939Z,89.06
2022-11-28T13:10:19.665Z,89.22
2022-11-28T13:12:57.038Z,89.11
2022-11-28T13:15:42.135Z,88.79
2022-11-28T13:18:20.942Z,88.93
2022-11-28T13:20:54.582Z,88.95
2022-11-28T13:23:28.571Z,89.29
2022-11-28T13:26:02.618Z,89.30
2022-11-28T13:28:37.387Z,89.20
2022-11-28T13:31:11.020Z,89.16
2022-11-28T13:33:52.056Z,89.15
2022-11-28T13:39:23.801Z,89.30
2022-11-28T13:42:52.352Z,88.94
2022-11-28T13:44:57.521Z,89.05
2022-11-28T13:47:34.874Z,88.79
2022-11-28T13:50:38.246Z,88.92
2022-11-28T13:53:22.901Z,89.12
2022-11-28T13:55:52.687Z,89.46
2022-11-28T13:58:28.401Z,89.25
2022-11-28T14:01:07.783Z,89.47
2022-11-28T14:03:46.324Z,89.55
2022-11-28T14:06:18.250Z,89.18
2022-11-28T14:08:50.099Z,89.16
2022-11-28T14:11:59.907Z,89.85
2022-11-28T14:14:54.425Z,89.52
2022-11-28T14:17:37.781Z,89.23
2022-11-28T14:20:20.470Z,89.26
2022-11-28T14:22:55.062Z,90.13
2022-11-28T14:25:28.466Z,89.63
2022-11-28T14:27:59.897Z,89.50
2022-11-28T14:30:33.369Z,89.84
2022-11-28T14:33:07.216Z,90.00
2022-11-28T14:36:16.812Z,89.82
2022-11-28T14:38:47.453Z,89.46
2022-11-28T14:41:16.922Z,89.82
2022-11-28T14:43:46.363Z,89.97
2022-11-28T14:46:35.043Z,90.00
2022-11-28T14:49:19.136Z,90.09
2022-11-28T14:52:38.341Z,90.31
2022-11-28T14:55:17.950Z,90.10
2022-11-28T14:57:56.122Z,90.09
2022-11-28T15:00:26.539Z,90.22
2022-11-28T15:03:20.571Z,89.89
2022-11-28T15:05:50.887Z,90.27
2022-11-28T15:08:30.069Z,90.21
2022-11-28T15:11:09.775Z,90.54
2022-11-28T15:13:53.915Z,90.09
2022-11-28T15:16:24.024Z,90.14
2022-11-28T15:18:54.854Z,90.18
2022-11-28T15:21:23.383Z,90.09
2022-11-28T15:23:55.133Z,90.16
2022-11-28T15:26:29.415Z,90.35
2022-11-28T15:29:10.341Z,90.43
2022-11-28T15:31:38.904Z,90.54
2022-11-28T15:34:09.996Z,90.69
2022-11-28T15:36:40.216Z,90.20
2022-11-28T15:39:26.165Z,90.42
2022-11-28T15:41:56.731Z,90.27
2022-11-28T15:44:25.238Z,90.15
2022-11-28T15:46:53.442Z,90.33
2022-11-28T15:49:26.610Z,90.74
2022-11-28T15:51:56.220Z,90.61
2022-11-28T15:54:36.338Z,90.69
2022-11-28T15:57:05.991Z,91.01
2022-11-28T15:59:37.292Z,90.80
2022-11-28T16:02:15.094Z,90.37
2022-11-28T16:04:44.044Z,90.93
2022-11-28T16:07:16.156Z,91.12
2022-11-28T16:09:55.161Z,91.18
2022-11-28T16:12:25.474Z,91.31
2022-11-28T16:14:58.690Z,91.34
2022-11-28T16:17:33.081Z,91.65
2022-11-28T16:20:03.649Z,91.20
2022-11-28T16:22:40.951Z,91.22
2022-11-28T16:25:15.277Z,91.59
2022-11-28T16:27:48.825Z,91.81
2022-11-28T16:30:36.740Z,91.68
2022-11-28T16:33:26.561Z,91.60
2022-11-28T16:35:54.588Z,91.56
2022-11-28T16:38:29.624Z,91.59
2022-11-28T16:41:01.729Z,91.31
2022-11-28T16:43:35.743Z,91.87
2022-11-28T16:46:06.507Z,91.86
2022-11-28T16:48:37.202Z,91.70
2022-11-28T16:51:34.301Z,91.93
2022-11-28T16:54:23.575Z,91.83
2022-11-28T16:56:51.482Z,91.80
2022-11-28T16:59:21.454Z,92.10
2022-11-28T17:01:53.195Z,91.62
2022-11-28T17:04:22.705Z,92.12
2022-11-28T17:06:50.840Z,91.43
2022-11-28T17:09:19.234Z,91.58
2022-11-28T17:11:51.889Z,91.33
2022-11-28T17:14:21.350Z,91.49
2022-11-28T17:16:49.289Z,91.77
2022-11-28T17:19:17.648Z,92.04
2022-11-28T17:21:47.863Z,91.46
2022-11-28T17:24:18.714Z,91.54
2022-11-28T17:26:47.190Z,91.56
2022-11-28T17:29:16.667Z,91.98
2022-11-28T17:31:47.380Z,91.57
2022-11-28T17:34:17.453Z,91.58
2022-11-28T17:36:45.730Z,92.12
2022-11-28T17:39:13.858Z,92.05
2022-11-28T17:41:42.390Z,92.42
2022-11-28T17:44:22.334Z,92.54
2022-11-28T17:46:54.663Z,92.40
2022-11-28T17:49:23.541Z,92.56
2022-11-28T17:51:52.561Z,92.84
2022-11-28T17:54:27.665Z,92.75
2022-11-28T17:57:01.705Z,92.94
2022-11-28T17:59:29.610Z,92.76
2022-11-28T18:01:58.952Z,92.64
2022-11-28T18:04:27.002Z,92.19
2022-11-28T18:06:54.808Z,92.71
2022-11-28T18:09:22.642Z,92.38
2022-11-28T18:11:51.715Z,92.57
2022-11-28T18:14:20.061Z,92.79
2022-11-28T18:16:48.105Z,92.62
2022-11-28T18:19:17.407Z,93.06
2022-11-28T18:21:45.224Z,93.43
2022-11-28T18:24:17.077Z,92.86
2022-11-28T18:26:44.955Z,92.66
2022-11-28T18:29:13.088Z,93.16
2022-11-28T18:31:40.898Z,92.97
2022-11-28T18:34:09.569Z,93.19
2022-11-28T18:36:40.038Z,93.23
2022-11-28T18:39:10.074Z,93.36
2022-11-28T18:41:40.061Z,93.37
2022-11-28T18:44:08.139Z,93.35
2022-11-28T18:46:36.457Z,93.59
2022-11-28T18:49:05.600Z,93.79
2022-11-28T18:51:35.193Z,93.45
2022-11-28T18:54:06.249Z,93.71
2022-11-28T18:56:34.091Z,93.93
2022-11-28T18:59:02.378Z,93.33
2022-11-28T19:01:32.075Z,93.95
2022-11-28T19:04:02.832Z,93.43
2022-11-28T19:06:30.996Z,93.53
2022-11-28T19:09:00.585Z,93.18
2022-11-28T19:11:30.600Z,93.38
2022-11-28T19:14:00.650Z,93.08
2022-11-28T19:16:29.884Z,93.04
2022-11-28T19:18:58.452Z,93.34
2022-11-28T19:21:28.854Z,93.47
2022-11-28T19:23:58.048Z,94.00
2022-11-28T19:26:28.039Z,93.86
2022-11-28T19:28:59.531Z,93.67
2022-11-28T19:31:29.088Z,93.36
2022-11-28T19:34:01.538Z,93.45
2022-11-28T19:36:30.256Z,93.41
2022-11-28T19:38:58.625Z,93.29
2022-11-28T19:41:26.994Z,93.40
2022-11-28T19:43:54.863Z,92.96
2022-11-28T19:46:24.652Z,93.60
2022-11-28T19:48:52.635Z,93.39
2022-11-28T19:51:21.130Z,93.66
2022-11-28T19:53:48.994Z,93.50
2022-11-28T19:56:18.926Z,93.79
2022-11-28T19:58:48.673Z,93.37
2022-11-28T20:01:21.094Z,93.47
2022-11-28T20:03:50.479Z,93.29
2022-11-28T20:06:19.975Z,93.80
2022-11-28T20:08:48.642Z,93.81
2022-11-28T20:11:18.242Z,93.63
2022-11-28T20:13:46.855Z,93.80
2022-11-28T20:16:19.531Z,93.50
2022-11-28T20:18:47.496Z,93.96
2022-11-28T20:21:18.661Z,94.10
2022-11-28T20:23:49.451Z,93.85
2022-11-28T20:26:18.851Z,94.16
2022-11-28T20:28:49.219Z,93.86
2022-11-28T20:31:20.495Z,93.71
2022-11-28T20:33:48.867Z,94.23
2022-11-28T20:36:20.024Z,93.96
2022-11-28T20:38:48.141Z,94.18
2022-11-28T20:41:18.345Z,94.27
2022-11-28T20:43:46.557Z,94.03
2022-11-28T20:46:16.201Z,93.99
2022-11-28T20:48:44.490Z,93.96
2022-11-28T20:51:14.789Z,94.21
2022-11-28T20:53:45.147Z,94.39
2022-11-28T20:56:15.096Z,94.05
2022-11-28T20:58:43.151Z,93.82
2022-11-28T21:01:16.101Z,93.72
2022-11-28T21:03:44.344Z,94.36
2022-11-28T21:06:13.265Z,94.20
2022-11-28T21:08:41.503Z,94.09
2022-11-28T21:11:30.551Z,94.32
2022-11-28T21:14:10.454Z,94.05
2022-11-28T21:16:38.307Z,94.44
2022-11-28T21:19:09.004Z,94.40
2022-11-28T21:21:38.713Z,94.72
2022-11-28T21:24:09.671Z,94.74
2022-11-28T21:26:42.410Z,94.52
2022-11-28T21:29:13.794Z,94.52
2022-11-28T21:31:45.529Z,94.32
2022-11-28T21:34:15.545Z,94.45
2022-11-28T21:36:43.893Z,94.56
2022-11-28T21:39:15.324Z,94.63
2022-11-28T21:41:44.694Z,94.92
2022-11-28T21:44:12.489Z,94.64
2022-11-28T21:46:40.370Z,94.79
2022-11-28T21:49:08.257Z,94.27
2022-11-28T21:51:36.193Z,94.59
2022-11-28T21:54:04.362Z,95.05
2022-11-28T21:56:32.092Z,94.99
2022-11-28T21:59:01.340Z,95.45
2022-11-28T22:01:29.172Z,95.16
2022-11-28T22:04:02.111Z,95.49
2022-11-28T22:06:31.079Z,94.73
2022-11-28T22:08:59.462Z,94.92
2022-11-28T22:11:28.406Z,95.25
2022-11-28T22:13:56.304Z,95.35
2022-11-28T22:16:27.989Z,95.21
2022-11-28T22:18:58.866Z,95.26
2022-11-28T22:24:15.439Z,95.09
2022-11-28T22:26:43.266Z,94.94
2022-11-28T22:29:11.222Z,94.87
2022-11-28T22:31:40.541Z,95.06
2022-11-28T22:34:09.981Z,95.32
2022-11-28T22:36:38.698Z,95.03
2022-11-28T22:39:06.622Z,94.82
2022-11-28T22:41:34.542Z,95.30
2022-11-28T22:44:04.074Z,95.40
2022-11-28T22:46:32.555Z,94.85
2022-11-28T22:49:02.875Z,95.05
2022-11-28T22:51:31.662Z,95.05
2022-11-28T22:54:01.386Z,95.19
2022-11-28T22:56:30.913Z,95.37
2022-11-28T22:58:58.815Z,95.10
2022-11-28T23:01:28.526Z,95.12
2022-11-28T23:03:56.976Z,94.83
2022-11-28T23:06:28.511Z,95.04
2022-11-28T23:08:57.076Z,94.62
2022-11-28T23:11:26.605Z,94.41
2022-11-28T23:13:54.637Z,94.66
2022-11-28T23:16:24.806Z,94.37
2022-11-28T23:18:55.612Z,94.82
2022-11-28T23:21:25.053Z,94.69
2022-11-28T23:23:55.009Z,94.68
2022-11-28T23:26:25.422Z,94.81
2022-11-28T23:28:53.900Z,94.65
2022-11-28T23:31:23.779Z,95.00
2022-11-28T23:33:52.456Z,94.47
2022-11-28T23:36:23.567Z,95.13
2022-11-28T23:38:53.391Z,94.88
2022-11-28T23:41:22.762Z,94.99
2022-11-28T23:43:50.731Z,95.00
2022-11-28T23:46:20.133Z,94.60
2022-11-28T23:48:51.677Z,94.75
2022-11-28T23:51:21.092Z,95.36
2022-11-28T23:53:49.928Z,95.16
2022-11-28T23:56:20.616Z,94.91
2022-11-28T23:58:50.708Z,95.22
